createdAt,value
2024-05-09T00:04:19.859Z,78.83
2024-05-09T00:09:11.764Z,79.43
2024-05-09T00:14:03.798Z,79.77
2024-05-09T00:18:55.797Z,78.79
2024-05-09T00:23:47.676Z,79.97
2024-05-09T00:28:39.523Z,80.26
2024-05-09T00:33:31.522Z,80.25
2024-05-09T00:38:23.651Z,80.61
2024-05-09T00:43:15.767Z,80.96
2024-05-09T00:48:10.038Z,81.28
2024-05-09T00:53:03.291Z,82.26
2024-05-09T00:57:55.471Z,81.89
2024-05-09T01:02:48.109Z,81.47
2024-05-09T01:07:40.145Z,81.52
2024-05-09T01:12:32.149Z,82.28
2024-05-09T01:17:25.576Z,82.13
2024-05-09T01:22:17.590Z,81.77
2024-05-09T01:27:09.402Z,81.42
2024-05-09T01:32:01.381Z,81.50
2024-05-09T01:36:53.319Z,81.38
2024-05-09T01:41:45.257Z,82.21
2024-05-09T01:46:37.236Z,81.75
2024-05-09T01:51:29.097Z,81.65
2024-05-09T01:56:21.006Z,81.26
2024-05-09T02:01:13.045Z,81.09
2024-05-09T02:06:05.572Z,81.91
2024-05-09T02:10:57.681Z,82.37
2024-05-09T02:15:52.162Z,81.79
2024-05-09T02:20:44.380Z,82.74
2024-05-09T02:25:36.462Z,82.72
2024-05-09T02:35:23.163Z,82.73
2024-05-09T02:40:21.570Z,82.67
2024-05-09T02:45:17.542Z,82.53
2024-05-09T02:50:13.269Z,83.63
2024-05-09T02:55:07.858Z,83.25
2024-05-09T02:59:59.683Z,84.52
2024-05-09T03:04:51.618Z,85.07
2024-05-09T03:09:47.468Z,85.06
2024-05-09T03:14:39.455Z,84.90
2024-05-09T03:19:31.500Z,85.13
2024-05-09T03:24:23.442Z,84.54
2024-05-09T03:29:15.336Z,85.64
2024-05-09T03:34:07.419Z,83.81
2024-05-09T03:38:59.370Z,84.05
2024-05-09T03:43:51.370Z,84.78
2024-05-09T03:48:43.363Z,83.58
2024-05-09T03:53:37.118Z,83.73
2024-05-09T04:03:34.883Z,83.44
2024-05-09T04:08:26.828Z,83.50
2024-05-09T04:13:18.670Z,84.12
2024-05-09T04:18:10.667Z,84.22
2024-05-09T04:23:02.641Z,84.72
2024-05-09T04:27:55.881Z,83.27
2024-05-09T04:32:47.889Z,82.22
2024-05-09T04:37:39.793Z,83.40
2024-05-09T04:42:31.809Z,83.58
2024-05-09T04:47:23.818Z,83.40
2024-05-09T04:52:15.715Z,82.83
2024-05-09T04:57:07.546Z,82.93
2024-05-09T05:01:59.477Z,83.07
2024-05-09T05:06:51.386Z,82.97
2024-05-09T05:11:43.380Z,81.76
2024-05-09T05:16:35.335Z,82.56
2024-05-09T05:21:27.357Z,82.91
2024-05-09T05:26:20.548Z,83.10
2024-05-09T05:31:12.667Z,82.61
2024-05-09T05:36:04.890Z,83.69
2024-05-09T05:40:56.949Z,83.97
2024-05-09T05:45:48.887Z,83.41
2024-05-09T05:50:40.770Z,83.54
2024-05-09T05:55:32.713Z,83.80
2024-05-09T06:00:30.105Z,83.53
2024-05-09T06:05:29.322Z,83.59
2024-05-09T06:10:25.704Z,81.76
2024-05-09T06:15:21.943Z,82.03
2024-05-09T06:20:20.542Z,82.10
2024-05-09T06:25:18.715Z,82.61
2024-05-09T06:30:21.126Z,80.87
2024-05-09T06:35:18.100Z,81.03
2024-05-09T06:40:12.546Z,80.01
2024-05-09T06:45:06.876Z,79.21
2024-05-09T06:49:58.718Z,79.59
2024-05-09T06:54:50.560Z,79.48
2024-05-09T06:59:42.482Z,78.89
2024-05-09T07:04:34.401Z,78.29
2024-05-09T07:09:26.328Z,77.98
2024-05-09T07:14:19.148Z,76.35
2024-05-09T07:19:11.409Z,76.17
2024-05-09T07:24:03.516Z,75.71
2024-05-09T07:28:55.367Z,75.32
2024-05-09T07:33:47.311Z,75.27
2024-05-09T07:38:39.338Z,74.98
2024-05-09T07:43:31.301Z,74.71
2024-05-09T07:53:40.464Z,73.23
2024-05-09T07:58:36.654Z,73.43
2024-05-09T08:03:28.892Z,72.42
2024-05-09T08:08:20.881Z,72.68
2024-05-09T08:13:12.801Z,72.72
2024-05-09T08:18:09.309Z,71.52
2024-05-09T08:23:01.257Z,70.57
2024-05-09T08:27:53.170Z,71.02
2024-05-09T08:32:47.713Z,71.15
2024-05-09T08:37:40.709Z,70.50
2024-05-09T08:42:35.525Z,69.67
2024-05-09T08:47:32.504Z,69.08
2024-05-09T08:52:24.965Z,68.52
2024-05-09T08:57:18.120Z,67.38
2024-05-09T09:02:13.968Z,67.80
2024-05-09T09:07:06.865Z,67.13
2024-05-09T09:11:58.779Z,66.54
2024-05-09T09:16:51.815Z,64.88
2024-05-09T09:21:43.733Z,64.39
2024-05-09T09:26:35.617Z,63.69
2024-05-09T09:31:27.596Z,64.02
2024-05-09T09:36:19.627Z,64.24
2024-05-09T09:41:12.770Z,62.05
2024-05-09T09:46:08.632Z,61.13
2024-05-09T09:51:03.107Z,62.58
2024-05-09T09:55:59.019Z,62.64
2024-05-09T10:00:50.907Z,63.08
2024-05-09T10:05:46.335Z,63.88
2024-05-09T10:10:40.135Z,64.54
2024-05-09T10:15:52.004Z,64.47
2024-05-09T10:20:46.000Z,63.37
2024-05-09T10:25:37.857Z,63.02
2024-05-09T10:30:35.823Z,61.75
2024-05-09T10:35:32.005Z,63.04
2024-05-09T10:40:29.336Z,62.76
2024-05-09T10:45:24.680Z,61.36
2024-05-09T10:50:22.634Z,60.60
2024-05-09T10:55:20.423Z,59.78
2024-05-09T11:00:19.454Z,57.85
2024-05-09T11:05:20.074Z,58.85
2024-05-09T11:10:14.577Z,57.33
2024-05-09T11:15:06.752Z,57.53
2024-05-09T11:20:00.271Z,56.29
2024-05-09T11:24:52.627Z,56.35
2024-05-09T11:29:45.595Z,56.06
2024-05-09T11:34:42.147Z,55.58
2024-05-09T11:39:35.191Z,54.37
2024-05-09T11:44:27.377Z,53.98
2024-05-09T11:49:19.671Z,52.79
2024-05-09T11:54:11.583Z,52.37
2024-05-09T11:59:03.719Z,50.78
2024-05-09T12:03:55.780Z,50.22
2024-05-09T12:08:48.115Z,49.46
2024-05-09T12:13:40.279Z,47.39
2024-05-09T12:18:33.917Z,46.92
2024-05-09T12:23:25.929Z,48.56
2024-05-09T12:28:18.182Z,47.80
2024-05-09T12:33:14.005Z,46.96
2024-05-09T12:38:06.128Z,45.02
2024-05-09T12:42:58.006Z,46.58
2024-05-09T12:47:50.121Z,47.71
2024-05-09T12:52:42.010Z,47.59
2024-05-09T12:57:34.022Z,47.66
2024-05-09T13:02:26.057Z,46.81
2024-05-09T13:07:18.720Z,46.67
2024-05-09T13:12:10.613Z,45.24
2024-05-09T13:17:02.588Z,44.92
2024-05-09T13:21:54.469Z,44.93
2024-05-09T13:26:46.334Z,45.32
2024-05-09T13:31:38.237Z,45.47
2024-05-09T13:36:30.153Z,45.91
2024-05-09T13:41:22.023Z,44.24
2024-05-09T13:46:13.947Z,44.45
2024-05-09T13:51:05.957Z,43.52
2024-05-09T13:55:57.818Z,43.35
2024-05-09T14:00:49.915Z,44.04
2024-05-09T14:05:42.105Z,44.06
2024-05-09T14:10:35.415Z,44.35
2024-05-09T14:15:27.321Z,43.65
2024-05-09T14:20:28.624Z,43.29
2024-05-09T14:25:26.184Z,42.38
2024-05-09T14:30:26.141Z,42.61
2024-05-09T14:35:25.929Z,44.24
2024-05-09T14:40:29.741Z,45.02
2024-05-09T14:45:28.679Z,44.84
2024-05-09T14:50:28.020Z,44.66
2024-05-09T14:55:26.868Z,44.92
2024-05-09T15:00:26.141Z,43.85
2024-05-09T15:05:21.480Z,43.49
2024-05-09T15:10:20.424Z,43.83
2024-05-09T15:15:17.363Z,44.86
2024-05-09T15:20:09.918Z,45.00
2024-05-09T15:25:08.440Z,43.68
2024-05-09T15:30:02.166Z,43.95
2024-05-09T15:34:54.014Z,44.29
2024-05-09T15:39:46.123Z,44.49
2024-05-09T15:44:38.225Z,43.50
2024-05-09T15:49:30.328Z,43.81
2024-05-09T15:54:23.595Z,43.84
2024-05-09T15:59:18.256Z,43.58
2024-05-09T16:04:10.870Z,43.99
2024-05-09T16:09:03.025Z,43.13
2024-05-09T16:13:54.850Z,43.34
2024-05-09T16:18:46.843Z,43.57
2024-05-09T16:23:40.376Z,44.82
2024-05-09T16:28:32.392Z,43.82
2024-05-09T16:33:26.028Z,43.83
2024-05-09T16:38:19.292Z,44.03
2024-05-09T16:43:13.098Z,44.00
2024-05-09T16:48:06.913Z,43.46
2024-05-09T16:52:58.987Z,43.65
2024-05-09T16:57:51.344Z,43.98
2024-05-09T17:02:44.143Z,43.85
2024-05-09T17:07:36.339Z,44.44
2024-05-09T17:12:28.208Z,44.92
2024-05-09T17:17:20.937Z,45.90
2024-05-09T17:22:16.047Z,46.28
2024-05-09T17:27:08.948Z,46.98
2024-05-09T17:32:00.805Z,46.51
2024-05-09T17:36:52.991Z,46.92
2024-05-09T17:41:44.916Z,47.57
2024-05-09T17:46:36.854Z,47.56
2024-05-09T17:51:31.699Z,47.48
2024-05-09T17:56:23.722Z,48.43
2024-05-09T18:01:15.874Z,48.34
2024-05-09T18:06:08.540Z,47.99
2024-05-09T18:11:00.540Z,48.09
2024-05-09T18:15:52.883Z,48.06
2024-05-09T18:20:46.163Z,48.58
2024-05-09T18:25:38.483Z,48.51
2024-05-09T18:30:34.965Z,48.91
2024-05-09T18:35:28.476Z,48.78
2024-05-09T18:40:27.380Z,48.35
2024-05-09T18:45:23.219Z,49.11
2024-05-09T18:50:24.370Z,49.12
2024-05-09T18:55:23.628Z,49.25
2024-05-09T19:00:26.794Z,49.54
2024-05-09T19:05:25.909Z,49.64
2024-05-09T19:10:22.685Z,49.72
2024-05-09T19:15:17.963Z,50.08
2024-05-09T19:20:20.510Z,50.77
2024-05-09T19:25:20.105Z,50.25
2024-05-09T19:30:21.037Z,50.92
2024-05-09T19:35:17.379Z,51.87
2024-05-09T19:40:14.815Z,51.66
2024-05-09T19:45:12.752Z,51.79
2024-05-09T19:50:10.541Z,51.60
2024-05-09T19:55:03.045Z,51.56
2024-05-09T19:59:55.048Z,51.18
2024-05-09T20:04:47.852Z,51.62
2024-05-09T20:09:39.774Z,51.80
2024-05-09T20:14:31.673Z,52.82
2024-05-09T20:19:23.557Z,53.17
2024-05-09T20:24:15.493Z,53.38
2024-05-09T20:29:07.328Z,54.16
2024-05-09T20:33:59.217Z,54.52
2024-05-09T20:38:51.082Z,54.94
2024-05-09T20:43:42.921Z,54.52
2024-05-09T20:48:34.962Z,55.20
2024-05-09T20:53:27.005Z,55.04
2024-05-09T20:58:18.965Z,54.62
2024-05-09T21:03:12.491Z,54.84
2024-05-09T21:08:05.288Z,54.32
2024-05-09T21:12:57.144Z,54.46
2024-05-09T21:17:48.996Z,53.75
2024-05-09T21:22:40.858Z,53.89
2024-05-09T21:27:34.165Z,54.76
2024-05-09T21:32:26.175Z,54.90
2024-05-09T21:37:18.249Z,54.84
2024-05-09T21:42:10.171Z,55.27
2024-05-09T21:47:02.026Z,55.42
2024-05-09T21:51:53.960Z,55.59
2024-05-09T21:56:45.793Z,55.78
2024-05-09T22:06:47.074Z,56.21
2024-05-09T22:11:39.001Z,56.21
2024-05-09T22:21:37.042Z,56.81
2024-05-09T22:26:28.884Z,56.66
2024-05-09T22:31:20.784Z,56.96
2024-05-09T22:36:12.746Z,56.82
2024-05-09T22:41:09.553Z,57.56
2024-05-09T22:46:03.376Z,58.03
2024-05-09T22:50:55.344Z,58.68
2024-05-09T22:55:47.278Z,59.55
2024-05-09T23:00:39.217Z,58.83
2024-05-09T23:05:32.602Z,59.50
2024-05-09T23:10:32.009Z,62.14
2024-05-09T23:15:27.981Z,64.34
2024-05-09T23:20:29.885Z,65.90
2024-05-09T23:25:28.614Z,66.93
2024-05-09T23:30:29.227Z,68.61
2024-05-09T23:35:28.682Z,70.23
2024-05-09T23:40:23.305Z,71.21
2024-05-09T23:45:15.946Z,71.53
2024-05-09T23:50:13.833Z,73.21
2024-05-09T23:55:08.494Z,73.42
